Time;durP1;ratioP1;P1;durP2;ratioP2;P2;SDS_P1;SDS_P2;PMS_P1;PMS_P2;Temp;Humidity;BMP_temperature;BMP_pressure;BME280_temperature;BME280_humidity;BME280_pressure;Samples;Min_cycle;Max_cycle;Signal;HPM_P1;HPM_P2
2022/08/20 00:02:09;;;;;;;16.58;10.80;;;;;;;14.82;100.00;94019.56;5008447;28;20458;-67
2022/08/20 00:04:35;;;;;;;15.20;10.63;;;;;;;14.85;100.00;94021.47;5010809;28;20038;-66
2022/08/20 00:07:05;;;;;;;16.67;10.80;;;;;;;14.84;100.00;94019.13;5010612;28;20042;-67
2022/08/20 00:09:33;;;;;;;15.88;10.68;;;;;;;14.86;100.00;94020.22;5009624;28;20664;-68
2022/08/20 00:12:04;;;;;;;15.20;10.27;;;;;;;14.84;100.00;94019.13;5010533;28;20058;-68
2022/08/20 00:14:31;;;;;;;15.10;9.82;;;;;;;14.80;100.00;94015.69;5009902;28;20045;-68
2022/08/20 00:17:00;;;;;;;16.98;10.13;;;;;;;14.76;100.00;94019.34;5010227;28;20050;-67
2022/08/20 00:19:27;;;;;;;16.33;10.00;;;;;;;14.70;100.00;94023.09;5010147;28;20119;-66
2022/08/20 00:21:54;;;;;;;15.02;9.73;;;;;;;14.65;100.00;94005.09;5010316;28;20040;-67
2022/08/20 00:24:23;;;;;;;53.90;32.70;;;;;;;14.64;100.00;94019.31;5008621;28;20500;-66
2022/08/20 00:26:50;;;;;;;19.23;12.48;;;;;;;14.62;100.00;94030.03;5010051;28;20044;-68
2022/08/20 00:29:18;;;;;;;15.90;9.68;;;;;;;14.56;100.00;94027.81;5009543;28;20048;-66
2022/08/20 00:31:46;;;;;;;16.92;9.75;;;;;;;14.45;100.00;94026.56;5010028;28;20450;-66
2022/08/20 00:34:13;;;;;;;15.15;9.98;;;;;;;14.26;100.00;94017.97;5009778;28;20060;-69
2022/08/20 00:36:39;;;;;;;14.47;9.43;;;;;;;14.35;100.00;94020.88;5009658;28;20046;-69
2022/08/20 00:39:06;;;;;;;14.98;9.55;;;;;;;14.17;100.00;94024.13;5010138;28;20422;-69
2022/08/20 00:41:33;;;;;;;17.15;10.07;;;;;;;14.27;100.00;94021.53;5007728;28;20345;-67
2022/08/20 00:44:10;;;;;;;17.73;11.10;;;;;;;14.36;100.00;94022.41;5009874;28;20171;-67
2022/08/20 00:46:38;;;;;;;18.30;10.60;;;;;;;14.43;100.00;94020.66;5009066;28;20813;-66
2022/08/20 00:49:16;;;;;;;19.77;11.47;;;;;;;14.31;100.00;94022.97;5009938;28;20052;-66
2022/08/20 00:51:52;;;;;;;19.27;12.35;;;;;;;14.17;100.00;94026.91;5009050;28;20325;-66
2022/08/20 00:54:36;;;;;;;20.23;12.63;;;;;;;14.07;100.00;94021.69;5009347;28;20361;-66
2022/08/20 00:57:23;;;;;;;20.95;12.95;;;;;;;14.01;100.00;94023.41;5009562;28;20040;-67
2022/08/20 00:59:51;;;;;;;22.40;13.90;;;;;;;13.99;100.00;94032.91;5007904;28;20388;-67
2022/08/20 01:02:21;;;;;;;21.73;12.70;;;;;;;14.01;100.00;94035.22;5007975;28;20034;-66
2022/08/20 01:04:53;;;;;;;20.67;12.60;;;;;;;13.99;100.00;94032.91;5010036;28;20343;-67
2022/08/20 01:07:30;;;;;;;21.88;13.18;;;;;;;13.95;100.00;94034.22;5009094;28;20487;-66
2022/08/20 01:09:59;;;;;;;23.95;12.55;;;;;;;13.87;100.00;94030.09;5009271;28;20049;-66
2022/08/20 01:12:28;;;;;;;20.25;12.55;;;;;;;13.85;100.00;94027.00;5009065;28;20050;-66
2022/08/20 01:14:59;;;;;;;20.07;12.27;;;;;;;13.78;100.00;94023.22;5009411;28;20046;-66
2022/08/20 01:17:28;;;;;;;17.88;11.10;;;;;;;13.79;100.00;94027.50;5008971;28;20045;-68
2022/08/20 01:20:14;;;;;;;16.90;10.20;;;;;;;13.77;100.00;94021.66;5009226;28;20376;-66
2022/08/20 01:25:40;;;;;;;21.63;12.40;;;;;;;13.78;100.00;94034.25;5009076;28;20044;-69
2022/08/20 01:28:08;;;;;;;23.30;14.10;;;;;;;13.68;100.00;94037.25;5008529;28;20438;-63
2022/08/20 01:30:36;;;;;;;25.38;15.10;;;;;;;13.64;100.00;94039.31;5009347;28;20072;-67
2022/08/20 01:33:04;;;;;;;24.52;14.40;;;;;;;13.66;100.00;94042.44;5009270;28;20037;-69
2022/08/20 01:35:39;;;;;;;29.83;17.15;;;;;;;13.62;100.00;94050.00;5008686;28;20048;-67
2022/08/20 01:38:07;;;;;;;21.80;13.73;;;;;;;13.65;100.00;94051.91;5009035;28;20044;-66
2022/08/20 01:40:55;;;;;;;23.20;14.00;;;;;;;13.66;100.00;94051.50;5008450;28;20822;-66
2022/08/20 01:43:23;;;;;;;24.90;13.93;;;;;;;13.70;100.00;94059.66;5008523;28;20058;-66
2022/08/20 01:45:51;;;;;;;22.45;13.68;;;;;;;13.65;100.00;94058.22;5009087;28;20065;-66
2022/08/20 01:48:19;;;;;;;21.30;13.32;;;;;;;13.68;100.00;94053.78;5008315;28;20049;-66
2022/08/20 01:50:54;;;;;;;22.40;13.75;;;;;;;13.80;100.00;94064.13;5008860;28;20038;-66
2022/08/20 01:53:29;;;;;;;23.73;13.60;;;;;;;13.82;100.00;94067.22;5008748;28;20042;-69
2022/08/20 01:55:55;;;;;;;20.77;12.82;;;;;;;13.83;100.00;94074.31;5008729;28;20041;-69
2022/08/20 01:58:22;;;;;;;20.67;13.32;;;;;;;13.93;100.00;94061.47;5008460;28;20050;-66
2022/08/20 02:00:49;;;;;;;20.95;12.50;;;;;;;13.92;100.00;94060.69;5006525;28;20064;-66
2022/08/20 02:03:16;;;;;;;20.15;12.52;;;;;;;13.92;100.00;94060.69;5008382;28;20089;-68
2022/08/20 02:05:42;;;;;;;19.43;11.77;;;;;;;13.88;100.00;94070.25;5008840;28;20460;-67
2022/08/20 02:08:09;;;;;;;19.98;12.43;;;;;;;13.86;100.00;94067.91;5008509;28;20037;-66
2022/08/20 02:10:36;;;;;;;22.42;13.77;;;;;;;13.89;100.00;94060.78;5011295;28;20042;-69
2022/08/20 02:13:04;;;;;;;22.95;13.93;;;;;;;13.82;100.00;94072.75;5012697;28;20042;-66
2022/08/20 02:15:31;;;;;;;23.95;14.07;;;;;;;13.83;100.00;94068.78;5003697;28;20085;-65
2022/08/20 02:18:09;;;;;;;25.43;14.03;;;;;;;13.79;100.00;94070.88;5005528;28;20053;-67
2022/08/20 02:20:37;;;;;;;21.08;13.10;;;;;;;13.75;100.00;94072.94;5011819;28;20726;-66
2022/08/20 02:23:06;;;;;;;22.35;13.57;;;;;;;13.62;100.00;94072.84;4996825;28;20388;-67
2022/08/20 02:25:36;;;;;;;20.55;13.02;;;;;;;13.56;100.00;94069.84;5011750;28;20364;-67
2022/08/20 02:28:07;;;;;;;23.85;13.13;;;;;;;13.56;100.00;94063.53;5011936;28;20065;-66
2022/08/20 02:30:38;;;;;;;22.50;13.93;;;;;;;13.48;100.00;94062.16;5011582;28;20689;-67
2022/08/20 02:33:08;;;;;;;23.60;14.23;;;;;;;13.45;100.00;94055.53;5012318;28;20054;-66
2022/08/20 02:35:36;;;;;;;26.30;14.48;;;;;;;13.40;100.00;94050.56;5011496;28;20064;-66
2022/08/20 02:38:03;;;;;;;23.08;13.73;;;;;;;13.41;100.00;94052.09;5011938;28;20068;-68
2022/08/20 02:40:30;;;;;;;22.17;14.05;;;;;;;13.39;100.00;94046.22;5011893;28;20038;-68
2022/08/20 02:42:59;;;;;;;24.30;14.13;;;;;;;13.35;100.00;94042.78;5012096;28;20038;-66
2022/08/20 02:45:27;;;;;;;22.88;13.25;;;;;;;13.26;100.00;94054.38;5011629;28;20054;-66
2022/08/20 02:47:55;;;;;;;20.42;12.40;;;;;;;13.14;100.00;94063.34;5012181;28;20502;-67
2022/08/20 02:50:24;;;;;;;23.08;13.10;;;;;;;13.05;100.00;94063.13;5011687;28;20037;-67
2022/08/20 02:52:51;;;;;;;20.92;12.43;;;;;;;13.08;100.00;94063.06;5020600;28;20049;-67
2022/08/20 02:55:20;;;;;;;21.13;13.50;;;;;;;13.13;100.00;94059.00;5031377;28;20376;-68
2022/08/20 02:57:56;;;;;;;20.65;12.98;;;;;;;13.17;100.00;94057.72;5031381;28;20486;-67
2022/08/20 03:00:27;;;;;;;21.60;12.40;;;;;;;13.18;100.00;94058.53;5031382;28;20049;-68
2022/08/20 03:02:54;;;;;;;19.50;12.63;;;;;;;13.24;100.00;94058.75;5031347;28;20048;-67
2022/08/20 03:05:21;;;;;;;20.88;12.75;;;;;;;13.30;100.00;94057.88;5031309;28;20044;-66
2022/08/20 03:07:55;;;;;;;22.30;12.87;;;;;;;13.37;100.00;94059.66;5031551;28;20499;-71
2022/08/20 03:10:24;;;;;;;19.52;12.55;;;;;;;13.28;100.00;94046.47;5031044;28;20082;-66
2022/08/20 03:12:51;;;;;;;22.05;12.82;;;;;;;13.31;100.00;94050.38;5031389;28;20095;-67
2022/08/20 03:15:19;;;;;;;21.95;12.65;;;;;;;13.37;100.00;94054.94;5031016;28;20368;-68
2022/08/20 03:17:47;;;;;;;22.95;12.77;;;;;;;13.11;100.00;94051.16;5031386;28;20047;-68
2022/08/20 03:20:14;;;;;;;21.80;12.90;;;;;;;12.98;100.00;94050.31;5030894;28;20047;-68
2022/08/20 03:22:41;;;;;;;21.40;13.25;;;;;;;13.16;100.00;94047.16;5030066;28;20044;-69
2022/08/20 03:25:09;;;;;;;20.17;12.85;;;;;;;13.23;100.00;94051.72;5030296;28;20052;-65
2022/08/20 03:27:36;;;;;;;18.70;11.85;;;;;;;13.31;100.00;94053.13;5029571;28;20037;-67
2022/08/20 03:30:07;;;;;;;18.65;12.30;;;;;;;13.32;100.00;94047.19;5031432;28;20079;-67
2022/08/20 03:32:34;;;;;;;21.63;12.47;;;;;;;13.17;100.00;94049.47;5030332;28;20784;-66
2022/08/20 03:35:01;;;;;;;20.75;12.50;;;;;;;13.07;100.00;94050.47;5030974;28;20037;-67
2022/08/20 03:37:33;;;;;;;20.88;13.40;;;;;;;12.93;100.00;94043.31;5030639;28;20041;-67
2022/08/20 03:40:02;;;;;;;41.10;13.52;;;;;;;13.02;100.00;94044.69;5013041;28;20495;-68
2022/08/20 03:42:30;;;;;;;23.10;13.25;;;;;;;13.06;100.00;94035.16;5021857;28;20037;-69
2022/08/20 03:44:56;;;;;;;20.97;12.67;;;;;;;13.09;100.00;94033.53;5030640;28;20033;-67
2022/08/20 03:47:25;;;;;;;20.38;12.10;;;;;;;13.06;100.00;94035.16;5030340;28;20410;-67
2022/08/20 03:49:57;;;;;;;21.25;12.52;;;;;;;13.02;100.00;94042.75;5030280;28;20038;-67
2022/08/20 03:52:27;;;;;;;19.30;12.15;;;;;;;12.97;100.00;94037.72;5030354;28;20045;-69
2022/08/20 03:54:55;;;;;;;17.95;12.10;;;;;;;12.93;100.00;94037.78;5030473;28;20052;-69
2022/08/20 03:57:22;;;;;;;18.90;11.10;;;;;;;12.87;100.00;94036.75;5030064;28;20085;-69
2022/08/20 03:59:50;;;;;;;27.63;12.05;;;;;;;12.83;100.00;94040.81;5030601;28;20055;-69
2022/08/20 04:02:24;;;;;;;64.72;13.80;;;;;;;12.76;100.00;94037.00;5030299;28;20034;-67
2022/08/20 04:04:51;;;;;;;69.28;13.43;;;;;;;12.56;100.00;94041.75;5030420;28;20379;-67
2022/08/20 04:07:26;;;;;;;66.95;13.18;;;;;;;12.47;100.00;94039.56;5030082;28;20059;-68
2022/08/20 04:09:56;;;;;;;44.57;13.27;;;;;;;12.58;100.00;94042.13;5030359;28;20048;-66
2022/08/20 04:12:24;;;;;;;64.65;14.07;;;;;;;12.61;100.00;94037.72;5014759;28;20045;-69
2022/08/20 04:14:53;;;;;;;41.40;13.75;;;;;;;12.70;100.00;94044.22;5030041;28;20047;-67
2022/08/20 04:17:19;;;;;;;164.52;27.73;;;;;;;12.63;100.00;94038.84;5029833;28;20050;-67
2022/08/20 04:19:48;;;;;;;64.80;19.67;;;;;;;12.71;100.00;94037.50;5030213;28;20095;-69
2022/08/20 04:22:14;;;;;;;79.67;14.07;;;;;;;12.66;100.00;94040.75;5029537;28;20037;-67
2022/08/20 04:24:42;;;;;;;67.45;13.40;;;;;;;12.67;100.00;94034.03;5030195;28;20475;-67
2022/08/20 04:27:09;;;;;;;58.38;12.52;;;;;;;12.69;100.00;94044.63;5027671;28;20298;-66
2022/08/20 04:29:36;;;;;;;28.75;11.98;;;;;;;12.65;100.00;94041.94;5029972;28;20044;-66
2022/08/20 04:32:04;;;;;;;23.10;12.65;;;;;;;12.64;100.00;94039.66;5029905;28;20077;-66
2022/08/20 04:34:33;;;;;;;38.57;11.63;;;;;;;12.67;100.00;94049.78;5029412;28;20041;-66
2022/08/20 04:36:59;;;;;;;220.25;13.15;;;;;;;12.65;100.00;94052.19;5029522;28;20076;-67
2022/08/20 04:39:26;;;;;;;172.82;13.52;;;;;;;12.63;100.00;94051.84;5029114;28;20045;-66
2022/08/20 04:41:54;;;;;;;206.38;13.70;;;;;;;12.52;100.00;94046.56;5029574;28;20053;-68
2022/08/20 04:44:21;;;;;;;37.30;10.80;;;;;;;12.71;100.00;94056.00;5029283;28;20058;-67
2022/08/20 04:46:48;;;;;;;46.43;11.00;;;;;;;12.85;100.00;94058.44;5029771;28;20045;-66
2022/08/20 04:49:15;;;;;;;52.00;11.07;;;;;;;12.98;100.00;94062.09;5029158;28;20086;-65
2022/08/20 04:51:41;;;;;;;47.67;10.43;;;;;;;13.07;100.00;94061.50;5029370;28;20110;-66
2022/08/20 04:54:08;;;;;;;92.13;10.98;;;;;;;12.81;100.00;94062.47;5060564;28;20050;-67
2022/08/20 04:56:38;;;;;;;80.95;10.73;;;;;;;12.54;100.00;94063.44;5029383;28;20052;-67
2022/08/20 04:59:06;;;;;;;79.40;11.00;;;;;;;12.31;100.00;94062.28;5029212;28;20054;-66
2022/08/20 05:01:36;;;;;;;53.00;11.57;;;;;;;12.31;100.00;94062.28;5027349;28;20620;-66
2022/08/20 05:04:03;;;;;;;29.25;11.25;;;;;;;12.87;100.00;94058.78;5029363;28;20115;-66
2022/08/20 05:06:30;;;;;;;19.67;10.60;;;;;;;13.16;100.00;94049.91;5029104;28;20037;-68
2022/08/20 05:08:59;;;;;;;29.27;11.15;;;;;;;13.20;100.00;94058.88;5015282;28;20038;-66
2022/08/20 05:11:27;;;;;;;23.70;10.90;;;;;;;13.32;100.00;94058.22;5028852;28;20486;-67
2022/08/20 05:14:04;;;;;;;17.80;10.18;;;;;;;13.42;100.00;94072.16;5029104;28;20046;-66
2022/08/20 05:16:36;;;;;;;25.98;10.32;;;;;;;13.47;100.00;94069.66;5028858;28;20075;-67
2022/08/20 05:19:03;;;;;;;12.95;8.57;;;;;;;13.65;100.00;94072.00;5028775;28;20072;-66
2022/08/20 05:21:30;;;;;;;15.48;8.90;;;;;;;13.87;99.35;94069.47;5028958;28;20390;-66
2022/08/20 05:23:56;;;;;;;13.40;8.23;;;;;;;13.95;96.85;94073.59;5028869;28;20041;-71
2022/08/20 05:26:25;;;;;;;19.75;8.60;;;;;;;13.67;97.98;94074.31;5060092;28;20054;-66
2022/08/20 05:28:51;;;;;;;23.65;8.75;;;;;;;13.51;99.47;94078.63;5028677;28;20037;-66
2022/08/20 05:31:26;;;;;;;25.65;8.50;;;;;;;13.69;99.83;94080.19;5028265;28;20059;-68
2022/08/20 05:34:10;;;;;;;25.88;7.80;;;;;;;14.09;97.55;94079.97;5028693;28;20049;-66
2022/08/20 05:36:40;;;;;;;27.83;7.43;;;;;;;14.47;95.10;94079.34;5028160;28;20627;-66
2022/08/20 05:39:08;;;;;;;25.48;7.22;;;;;;;15.13;92.83;94079.84;5028684;28;20048;-67
2022/08/20 05:41:37;;;;;;;14.73;7.03;;;;;;;15.60;89.56;94075.66;5059827;28;21729;-67
2022/08/20 05:44:08;;;;;;;14.13;6.90;;;;;;;15.71;88.53;94089.91;5027843;28;20684;-66
2022/08/20 05:46:39;;;;;;;16.20;6.68;;;;;;;16.27;87.07;94086.47;5027866;28;20522;-67
2022/08/20 05:49:08;;;;;;;12.03;6.80;;;;;;;16.12;86.38;94085.44;5028387;28;20609;-66
2022/08/20 05:51:35;;;;;;;16.40;7.22;;;;;;;16.30;85.30;94082.81;5027640;28;20496;-66
2022/08/20 05:54:04;;;;;;;26.70;7.18;;;;;;;15.75;87.69;94088.63;5028483;28;20513;-66
2022/08/20 05:56:31;;;;;;;19.52;7.47;;;;;;;15.60;89.05;94083.94;5028317;28;20402;-67
2022/08/20 05:59:03;;;;;;;99.97;6.50;;;;;;;15.45;88.17;94087.13;5028321;28;20041;-72
2022/08/20 06:01:31;;;;;;;45.90;5.40;;;;;;;15.56;87.46;94087.59;5026322;28;20042;-66
2022/08/20 06:06:43;;;;;;;12.93;4.82;;;;;;;16.26;84.63;94075.84;5027943;28;20037;-68
2022/08/20 06:09:18;;;;;;;7.93;4.88;;;;;;;16.30;85.47;94077.28;5027893;28;20046;-67
2022/08/20 06:12:04;;;;;;;17.95;5.30;;;;;;;16.42;84.65;94077.66;5028505;28;20042;-67
2022/08/20 06:14:32;;;;;;;7.10;4.87;;;;;;;17.13;82.99;94080.63;5028244;28;20052;-67
2022/08/20 06:17:16;;;;;;;11.05;5.10;;;;;;;17.33;81.69;94087.84;5060279;28;20050;-68
2022/08/20 06:19:44;;;;;;;8.77;5.05;;;;;;;16.85;82.61;94085.25;5015243;28;20301;-68
2022/08/20 06:22:14;;;;;;;6.50;4.80;;;;;;;16.68;83.73;94095.75;5059051;28;20046;-68
2022/08/20 06:24:50;;;;;;;7.68;5.30;;;;;;;16.77;84.21;94092.25;5028417;28;20045;-67
2022/08/20 06:27:17;;;;;;;7.10;5.30;;;;;;;16.65;84.75;94095.88;5027639;28;20049;-69
2022/08/20 06:29:44;;;;;;;8.27;5.63;;;;;;;16.99;83.75;94089.50;5028035;28;20057;-68
2022/08/20 06:32:11;;;;;;;6.78;5.20;;;;;;;17.22;83.46;94087.47;5027546;28;20048;-68
2022/08/20 06:34:38;;;;;;;8.32;5.32;;;;;;;17.41;82.08;94088.34;5028201;28;20037;-67
2022/08/20 06:37:23;;;;;;;6.70;4.95;;;;;;;17.30;83.14;94094.28;5027473;28;20528;-67
2022/08/20 06:40:02;;;;;;;6.87;5.00;;;;;;;17.36;82.50;94092.44;5028288;28;20402;-69
2022/08/20 06:42:29;;;;;;;7.03;5.22;;;;;;;17.19;83.53;94091.16;5027882;28;20045;-67
2022/08/20 06:44:58;;;;;;;6.93;5.30;;;;;;;17.29;82.48;94087.97;5059738;28;20037;-67
2022/08/20 06:47:25;;;;;;;8.18;5.30;;;;;;;16.94;84.36;94090.06;5027582;28;20053;-66
2022/08/20 06:49:51;;;;;;;7.75;5.65;;;;;;;16.89;85.63;94085.13;5028028;28;20398;-69
2022/08/20 06:52:18;;;;;;;8.70;5.43;;;;;;;16.96;85.63;94088.41;5027299;28;20069;-67
2022/08/20 06:54:55;;;;;;;7.80;6.18;;;;;;;16.62;86.53;94086.47;5028315;28;20052;-68
2022/08/20 06:57:22;;;;;;;7.78;5.95;;;;;;;16.49;87.64;94089.28;5030649;28;20225;-67
2022/08/20 06:59:48;;;;;;;8.82;6.32;;;;;;;16.72;87.54;94085.28;5031788;28;20056;-67
2022/08/20 07:02:20;;;;;;;8.38;6.00;;;;;;;16.81;87.62;94089.34;5024408;28;20337;-67
2022/08/20 07:04:55;;;;;;;7.60;5.80;;;;;;;16.75;87.09;94089.91;5031750;28;20067;-66
2022/08/20 07:07:21;;;;;;;7.88;5.60;;;;;;;16.95;87.23;94091.63;5030780;28;20052;-67
2022/08/20 07:09:48;;;;;;;8.10;5.90;;;;;;;16.82;87.38;94088.16;5031412;28;20060;-68
2022/08/20 07:12:15;;;;;;;8.02;5.63;;;;;;;16.65;88.31;94090.31;5030668;28;20049;-67
2022/08/20 07:14:41;;;;;;;9.02;5.97;;;;;;;16.50;89.75;94093.59;5030117;28;20059;-70
2022/08/20 07:17:10;;;;;;;8.60;6.40;;;;;;;16.48;90.07;94089.72;5029329;28;20045;-65
2022/08/20 07:19:38;;;;;;;8.57;6.15;;;;;;;16.64;89.44;94089.56;5047500;28;20051;-68
2022/08/20 07:22:05;;;;;;;7.60;5.90;;;;;;;17.11;87.89;94088.63;5031006;28;20050;-67
2022/08/20 07:24:32;;;;;;;7.85;5.95;;;;;;;17.39;85.70;94088.00;5030633;28;20329;-67
2022/08/20 07:27:03;;;;;;;7.68;5.93;;;;;;;17.29;85.75;94092.75;5031370;28;20049;-70
2022/08/20 07:32:33;;;;;;;9.97;5.97;;;;;;;17.22;86.10;94088.22;5030420;28;20041;-67
2022/08/20 07:35:10;;;;;;;8.73;6.65;;;;;;;16.55;90.71;94086.69;5030717;28;20406;-68
2022/08/20 07:37:42;;;;;;;10.25;6.82;;;;;;;17.24;87.02;94082.22;5016490;28;20051;-68
2022/08/20 07:40:16;;;;;;;7.90;5.90;;;;;;;17.94;84.22;94085.44;5030309;28;20037;-69
2022/08/20 07:42:49;;;;;;;7.73;5.97;;;;;;;18.53;80.70;94082.56;5030901;28;20038;-67
2022/08/20 07:45:17;;;;;;;8.57;6.07;;;;;;;18.62;79.58;94090.16;5030071;28;20551;-67
2022/08/20 07:47:45;;;;;;;7.50;5.80;;;;;;;18.84;79.82;94088.00;5030650;28;20044;-67
2022/08/20 07:50:17;;;;;;;7.32;5.60;;;;;;;20.28;73.81;94090.41;5029805;28;20106;-68
2022/08/20 07:52:45;;;;;;;6.60;5.30;;;;;;;21.78;69.67;94099.75;5030435;28;20045;-70
2022/08/20 07:55:15;;;;;;;6.43;4.80;;;;;;;21.95;66.46;94100.75;5029776;28;20393;-71
2022/08/20 07:57:44;;;;;;;6.85;4.90;;;;;;;24.81;58.46;94097.63;5030167;28;20038;-69
2022/08/20 08:00:12;;;;;;;5.50;4.53;;;;;;;27.00;51.29;94101.66;5029838;28;20049;-71
2022/08/20 08:02:39;;;;;;;5.55;4.40;;;;;;;29.81;44.39;94088.91;5030616;28;20042;-69
2022/08/20 08:05:06;;;;;;;5.22;4.13;;;;;;;30.72;42.70;94093.75;5030333;28;20490;-75
2022/08/20 08:07:34;;;;;;;6.40;4.37;;;;;;;29.27;43.15;94099.94;5028924;28;20330;-69
2022/08/20 08:10:06;;;;;;;5.40;4.10;;;;;;;26.64;48.94;94093.13;5028709;28;20053;-69
2022/08/20 08:12:39;;;;;;;6.53;4.57;;;;;;;24.81;54.44;94111.66;5024976;28;21785;-70
2022/08/20 08:15:11;;;;;;;7.80;4.72;;;;;;;24.29;56.97;94101.44;5030830;28;20033;-73
2022/08/20 08:17:38;;;;;;;5.57;4.65;;;;;;;23.82;58.24;94107.25;5029624;28;20916;-70
2022/08/20 08:20:07;;;;;;;6.23;5.13;;;;;;;23.50;59.70;94104.44;5030140;28;20045;-68
2022/08/20 08:22:34;;;;;;;7.90;4.85;;;;;;;23.24;60.11;94103.66;5060827;28;21620;-68
2022/08/20 08:25:01;;;;;;;7.05;4.68;;;;;;;22.70;61.44;94098.47;5030183;28;20053;-68
2022/08/20 08:27:32;;;;;;;6.00;4.22;;;;;;;22.72;62.21;94105.13;5028939;28;20055;-66
2022/08/20 08:29:59;;;;;;;5.50;3.85;;;;;;;21.84;63.71;94101.38;5030177;28;20103;-68
2022/08/20 08:32:27;;;;;;;6.37;4.10;;;;;;;20.43;68.71;94096.03;5029091;28;20048;-68
2022/08/20 08:34:54;;;;;;;5.05;3.65;;;;;;;20.66;68.47;94100.03;5028321;28;20045;-68
2022/08/20 08:37:20;;;;;;;7.07;3.90;;;;;;;20.26;70.44;94097.69;5029184;28;20036;-70
2022/08/20 08:39:47;;;;;;;6.72;3.63;;;;;;;20.40;70.52;94102.53;5028405;28;20041;-69
2022/08/20 08:42:24;;;;;;;9.25;4.70;;;;;;;20.58;70.90;94100.88;5029141;28;20048;-69
2022/08/20 08:44:53;;;;;;;6.43;4.30;;;;;;;19.97;73.87;94103.91;5029611;28;20072;-69
2022/08/20 08:47:34;;;;;;;7.75;4.22;;;;;;;19.97;74.47;94098.34;5029131;28;20060;-69
2022/08/20 08:50:04;;;;;;;5.57;4.07;;;;;;;20.39;72.54;94100.25;5029729;28;20057;-69
2022/08/20 08:52:35;;;;;;;10.88;7.55;;;;;;;20.42;71.96;94096.50;5028963;28;20052;-68
2022/08/20 08:55:05;;;;;;;30.08;23.50;;;;;;;20.63;71.29;94101.03;5029634;28;20041;-68
2022/08/20 08:57:33;;;;;;;7.97;6.37;;;;;;;20.17;72.11;94094.97;5014694;28;20051;-68
2022/08/20 09:00:14;;;;;;;6.35;4.40;;;;;;;20.06;73.02;94093.50;5029489;28;20049;-67
2022/08/20 09:02:58;;;;;;;16.13;12.20;;;;;;;20.00;74.60;94094.59;5028554;28;20405;-68
2022/08/20 09:05:36;;;;;;;10.02;6.93;;;;;;;20.05;74.12;94091.94;5028856;28;20047;-68
2022/08/20 09:08:10;;;;;;;5.85;4.57;;;;;;;20.08;73.63;94093.78;5029289;28;20087;-67
2022/08/20 09:10:43;;;;;;;7.87;5.40;;;;;;;20.03;75.61;94099.22;5026728;28;20772;-68
2022/08/20 09:13:11;;;;;;;7.43;4.70;;;;;;;19.98;76.12;94105.44;5019323;28;20727;-68
2022/08/20 09:15:37;;;;;;;10.70;7.47;;;;;;;19.82;78.04;94101.81;5029502;28;20045;-68
2022/08/20 09:18:04;;;;;;;10.05;7.15;;;;;;;19.44;78.49;94105.94;5029260;28;20047;-68
2022/08/20 09:20:31;;;;;;;9.15;5.70;;;;;;;18.74;80.34;94106.66;5027730;28;20073;-67
2022/08/20 09:22:58;;;;;;;7.13;4.90;;;;;;;18.66;80.81;94107.44;5029250;28;20044;-69
2022/08/20 09:25:24;;;;;;;6.70;4.90;;;;;;;18.70;81.08;94119.19;5028181;28;20053;-68
2022/08/20 09:27:51;;;;;;;6.75;4.90;;;;;;;18.80;79.93;94108.84;5028720;28;20115;-67
2022/08/20 09:30:18;;;;;;;7.60;5.15;;;;;;;18.69;82.04;94109.28;5028204;28;20050;-66
2022/08/20 09:32:46;;;;;;;9.00;5.43;;;;;;;18.79;83.02;94119.19;5060292;28;20037;-67
2022/08/20 09:35:12;;;;;;;8.30;5.83;;;;;;;18.55;84.74;94125.34;5028245;28;20049;-68
2022/08/20 09:37:39;;;;;;;8.90;5.57;;;;;;;18.16;84.93;94118.66;5028640;28;20120;-66
2022/08/20 09:40:07;;;;;;;9.15;6.20;;;;;;;18.41;85.24;94114.84;5028750;28;20064;-68
2022/08/20 09:42:36;;;;;;;8.35;5.80;;;;;;;18.06;86.80;94117.84;5027535;28;21821;-70
2022/08/20 09:45:08;;;;;;;7.78;5.72;;;;;;;19.00;82.75;94120.25;5028857;28;20397;-68
2022/08/20 09:47:38;;;;;;;7.90;5.43;;;;;;;18.84;82.41;94112.25;5027737;28;20363;-68
2022/08/20 09:50:20;;;;;;;8.77;6.13;;;;;;;18.30;85.60;94122.84;5028086;28;20116;-68
2022/08/20 09:52:51;;;;;;;9.38;6.75;;;;;;;18.33;88.50;94116.34;5027000;28;20108;-68
2022/08/20 09:55:39;;;;;;;9.15;6.45;;;;;;;18.19;87.52;94125.28;5027760;28;20048;-68
2022/08/20 09:58:29;;;;;;;9.18;6.20;;;;;;;18.17;89.81;94115.44;5028370;28;20045;-68
2022/08/20 10:00:57;;;;;;;8.73;5.87;;;;;;;17.28;94.03;94119.69;5014940;28;20207;-67
2022/08/20 10:03:24;;;;;;;7.20;4.93;;;;;;;17.37;93.61;94122.53;5027761;28;20047;-67
2022/08/20 10:05:51;;;;;;;8.32;4.30;;;;;;;16.81;96.29;94133.69;5028657;28;20538;-67
2022/08/20 10:08:17;;;;;;;6.45;4.00;;;;;;;16.72;97.74;94121.31;5026765;28;20387;-68
2022/08/20 10:10:44;;;;;;;5.75;3.80;;;;;;;16.77;97.71;94123.50;5028566;28;20041;-68
2022/08/20 10:13:11;;;;;;;6.67;3.33;;;;;;;16.68;97.19;94120.69;5027962;28;20053;-69
2022/08/20 10:15:41;;;;;;;4.70;3.00;;;;;;;16.60;95.93;94124.13;5028671;28;20252;-68
2022/08/20 10:18:08;;;;;;;6.65;3.15;;;;;;;16.75;94.99;94125.94;5027769;28;20099;-69
2022/08/20 10:20:38;;;;;;;5.50;3.10;;;;;;;16.36;97.26;94133.66;5028448;28;20099;-68
2022/08/20 10:23:04;;;;;;;6.30;3.20;;;;;;;16.67;97.05;94129.44;5028488;28;20060;-70
2022/08/20 10:25:31;;;;;;;7.03;3.10;;;;;;;16.94;95.91;94135.22;5027618;28;20048;-67
2022/08/20 10:27:58;;;;;;;6.28;3.15;;;;;;;16.82;94.96;94132.50;5027941;28;20042;-67
2022/08/20 10:30:25;;;;;;;6.57;3.00;;;;;;;16.87;95.06;94131.94;5028251;28;20058;-69
2022/08/20 10:32:52;;;;;;;5.07;2.75;;;;;;;17.17;94.07;94127.66;5063965;28;20049;-67
2022/08/20 10:35:19;;;;;;;4.50;2.80;;;;;;;17.03;93.84;94128.19;5031441;28;20044;-68
2022/08/20 10:37:45;;;;;;;4.30;2.47;;;;;;;17.44;90.11;94124.25;5032256;28;20033;-69
2022/08/20 10:40:14;;;;;;;4.00;2.42;;;;;;;17.77;88.82;94115.44;5031838;28;20041;-67
2022/08/20 10:42:44;;;;;;;4.22;2.72;;;;;;;17.85;88.25;94122.28;5032109;28;20045;-66
2022/08/20 10:45:14;;;;;;;4.70;2.47;;;;;;;18.01;88.18;94115.72;5025075;28;20049;-68
2022/08/20 10:47:41;;;;;;;4.32;2.40;;;;;;;18.33;87.28;94119.94;5032038;28;20042;-68
2022/08/20 10:50:12;;;;;;;5.27;2.33;;;;;;;18.42;86.43;94118.41;5031265;28;20046;-68
2022/08/20 10:52:39;;;;;;;5.63;2.65;;;;;;;18.79;84.94;94119.19;5031743;28;20041;-68
2022/08/20 10:55:06;;;;;;;4.30;2.60;;;;;;;18.83;83.91;94113.47;5031846;28;20052;-68
2022/08/20 10:57:33;;;;;;;4.60;2.47;;;;;;;19.12;80.64;94127.66;5030775;28;21642;-69
2022/08/20 11:00:00;;;;;;;4.28;2.40;;;;;;;18.84;83.86;94113.00;5031895;28;20482;-68
2022/08/20 11:02:28;;;;;;;4.60;2.57;;;;;;;19.30;80.18;94117.75;5031001;28;20063;-68
2022/08/20 11:04:55;;;;;;;3.72;2.35;;;;;;;19.13;80.24;94117.28;5031703;28;20034;-68
2022/08/20 11:07:42;;;;;;;4.68;2.28;;;;;;;20.05;76.15;94108.66;5030723;28;20460;-68
2022/08/20 11:10:25;;;;;;;3.30;2.10;;;;;;;19.45;78.93;94110.25;5031233;28;20041;-66
2022/08/20 11:12:51;;;;;;;3.67;2.60;;;;;;;19.87;75.05;94101.16;5031593;28;20053;-67
2022/08/20 11:15:18;;;;;;;4.53;2.60;;;;;;;19.48;79.24;94100.97;5029383;28;20045;-69
2022/08/20 11:17:45;;;;;;;4.55;2.60;;;;;;;20.28;74.01;94101.56;5031581;28;20406;-70
2022/08/20 11:20:14;;;;;;;3.47;2.38;;;;;;;21.08;72.71;94095.50;5030974;28;20045;-69
2022/08/20 11:22:41;;;;;;;4.28;3.00;;;;;;;20.18;75.34;94093.72;5030957;28;20046;-69
2022/08/20 11:25:08;;;;;;;3.33;2.47;;;;;;;19.74;75.88;94108.97;5030815;28;20406;-64
2022/08/20 11:27:38;;;;;;;4.07;2.40;;;;;;;20.80;75.39;94086.63;5030479;28;20387;-70
2022/08/20 11:30:09;;;;;;;4.55;3.10;;;;;;;19.77;77.05;94102.44;5031303;28;20437;-71
2022/08/20 11:32:36;;;;;;;3.88;2.83;;;;;;;19.30;77.94;94101.81;5029841;28;21703;-68
2022/08/20 11:35:04;;;;;;;4.63;2.90;;;;;;;19.21;79.76;94107.38;5031122;28;20401;-69
2022/08/20 11:37:52;;;;;;;33.50;30.33;;;;;;;20.14;78.40;94102.25;5030121;28;20414;-73
2022/08/20 11:40:20;;;;;;;6.10;3.90;;;;;;;20.67;75.92;94114.78;5029018;28;20440;-68
2022/08/20 11:42:47;;;;;;;4.57;3.13;;;;;;;20.54;77.77;94120.56;5060879;28;20050;-70